Friedman Memorial Airport Hailey US
ICAO: KSUN
IATA: SUN
Category: Medium
Scheduled Services: Yes

Elevation: 5318 ft
TransAlt. 18000 ft.

Airport Communications:
ATIS:128.225
AWOS:128.225
SALT LAKE CITY CNTR:118.05
CTAF:125.6
GND:121.7
BOISE RDO:122.4
HAILEY TWR:125.6
UNICOM:122.95

KSUN Zoom In..

If you have problems with the map follow the link
https://www.worldairports.se/pages/airport.php?
ICAO=KSUN

Runways:

(A) RW 13 length 7550 ft width 100 ft
---- / hdg 129

(B) RW 31 length 7550 ft width 100 ft
---- / hdg 309

Location; KSUN
Day. 29 / Time. 10.55 Zulu
* Altimeter: 30.15
* Temperature: -06° c. -21.2°f.
* Wind from: 320° Speed 09 kn.
Dewpoint: -07° c.
Visibility: 10 Statute Miles.
Clouds: Clear (automated report).

KSUN 291055Z AUTO 32009KT 10SM CLR M06/M07 A3015 RMK AO2


Wind From 320°
Speed 09 kn.

 
 
jpsmedia worldairports.se 2020   terms of use